Portada
METAR-TAF:

METAR-TAF

Aeroports :

Còrdova, Espanya

latitud: 37-51N, longitud: 004-51W, altitud: 90 m

Observació

L'informe es va fer fa 17 minuts, a les 22:00 UTC
Vent 10 kt del Oest/Sud-Oest, variant entre Sud/Sud-Oest i Oest
Temperatura 29°C
Humitat 40%
Pressió 1011 hPa
Visibilitat 10 km o més
sense núvols per sota de 1500 mi sense presència de cumulonimbus.

METAR: LEBA 252200Z AUTO 24010KT 210V280 CAVOK 29/14 Q1011

Hora: 00:17 (22:17 UTC)

Pronòstic

L'informe es va fer fa 8 hores i 17 minuts, a les 14:00 UTC
Pronòstic vàlid del 25 a les 15 UTC al 26 a les 15 UTC
Vent 11 kt del Oest/Sud-Oest
Visibilitat 10 km o més
sense núvols per sota de 1500 mi sense presència de cumulonimbus.
Evolucionant progressivament
l' 25 a les 19 UTC al 25 a les 21 UTC
Vent 6 kt del Oest/Nord-Oest
Evolucionant progressivament
l' 26 a les 12 UTC al 26 a les 14 UTC
Vent 10 kt del Oest/Sud-Oest

TAF: LEBA 251400Z 2515/2615 24011KT CAVOK TX37/2515Z TN20/2606Z BECMG 2519/2521 30006KT BECMG 2612/2614 24010KT

Observacions i pronòstics meteorològics de més de 4000 aeroports (METAR i TAF).

Les estacions disponibles són els punts grocs i vermells al mapa.

Posi el ratolí al punt desitjat per veure el nom de l'estació.

Feu clic per veure les observacions i els pronòstics meteorològics.

Per canviar el mapa: feu clic els botons verds amb una creu de color negre per apropar; al botó verd amb un guió per allunyar la imatge; o en les fletxes verdes per a mapes adjacents.


METAR-TAF: